createdAt,value
2019-03-05T00:01:16.499Z,2.30
2019-03-05T00:03:48.193Z,2.23
2019-03-05T00:06:19.494Z,2.00
2019-03-05T00:08:50.348Z,2.30
2019-03-05T00:11:21.469Z,2.33
2019-03-05T00:13:52.255Z,2.20
2019-03-05T00:16:23.168Z,2.10
2019-03-05T00:18:53.949Z,2.03
2019-03-05T00:21:25.013Z,2.10
2019-03-05T00:24:15.274Z,2.00
2019-03-05T00:26:46.761Z,2.17
2019-03-05T00:29:39.010Z,1.93
2019-03-05T00:32:10.084Z,2.17
2019-03-05T00:35:17.784Z,2.20
2019-03-05T00:38:09.173Z,2.10
2019-03-05T00:41:03.497Z,2.13
2019-03-05T00:44:17.656Z,2.13
2019-03-05T00:47:24.827Z,2.30
2019-03-05T00:50:31.819Z,2.60
2019-03-05T00:53:12.173Z,2.30
2019-03-05T00:56:04.720Z,1.93
2019-03-05T00:58:40.527Z,2.13
2019-03-05T01:01:41.404Z,2.00
2019-03-05T01:04:40.729Z,2.27
2019-03-05T01:07:11.947Z,2.00
2019-03-05T01:09:43.146Z,1.93
2019-03-05T01:12:14.700Z,1.97
2019-03-05T01:14:45.972Z,2.00
2019-03-05T01:17:16.718Z,1.97
2019-03-05T01:19:47.553Z,1.93
2019-03-05T01:22:18.388Z,1.87
2019-03-05T01:24:49.268Z,2.10
2019-03-05T01:27:20.137Z,2.00
2019-03-05T01:29:50.949Z,1.83
2019-03-05T01:32:41.096Z,2.23
2019-03-05T01:35:31.151Z,2.27
2019-03-05T01:38:02.179Z,2.20
2019-03-05T01:40:39.423Z,2.23
2019-03-05T01:43:10.509Z,2.00
2019-03-05T01:45:41.654Z,1.97
2019-03-05T01:48:12.629Z,2.27
2019-03-05T01:50:43.696Z,2.00
2019-03-05T01:53:14.671Z,2.00
2019-03-05T01:55:45.501Z,1.80
2019-03-05T01:58:17.344Z,2.07
2019-03-05T02:00:48.398Z,2.20
2019-03-05T02:03:20.280Z,2.10
2019-03-05T02:05:51.298Z,2.10
2019-03-05T02:08:22.116Z,2.50
2019-03-05T02:10:52.960Z,1.90
2019-03-05T02:13:23.789Z,2.00
2019-03-05T02:15:54.619Z,2.10
2019-03-05T02:18:27.096Z,2.10
2019-03-05T02:20:59.369Z,2.40
2019-03-05T02:23:57.666Z,2.17
2019-03-05T02:27:12.112Z,2.27
2019-03-05T02:29:49.907Z,2.00
2019-03-05T02:32:58.225Z,2.43
2019-03-05T02:35:41.780Z,2.17
2019-03-05T02:38:38.958Z,2.00
2019-03-05T02:41:36.820Z,2.07
2019-03-05T02:44:40.314Z,2.23
2019-03-05T02:48:05.001Z,1.90
2019-03-05T02:50:53.913Z,2.27
2019-03-05T02:53:49.275Z,2.53
2019-03-05T02:56:43.432Z,2.27
2019-03-05T02:59:13.864Z,2.50
2019-03-05T03:02:06.590Z,2.50
2019-03-05T03:04:41.169Z,2.17
2019-03-05T03:07:12.003Z,2.27
2019-03-05T03:10:27.412Z,2.60
2019-03-05T03:12:58.758Z,2.57
2019-03-05T03:15:31.213Z,2.63
2019-03-05T03:18:02.725Z,2.37
2019-03-05T03:20:33.677Z,2.60
2019-03-05T03:23:04.500Z,2.43
2019-03-05T03:25:35.547Z,2.50
2019-03-05T03:28:07.003Z,2.43
2019-03-05T03:30:37.815Z,2.10
2019-03-05T03:33:08.810Z,2.00
2019-03-05T03:35:39.884Z,2.27
2019-03-05T03:38:11.637Z,2.50
2019-03-05T03:40:42.677Z,2.17
2019-03-05T03:43:14.034Z,2.10
2019-03-05T03:45:45.096Z,1.97
2019-03-05T03:48:16.368Z,2.10
2019-03-05T03:50:47.359Z,2.10
2019-03-05T03:53:18.100Z,2.10
2019-03-05T03:55:49.616Z,1.83
2019-03-05T03:58:20.906Z,1.70
2019-03-05T04:00:51.667Z,2.00
2019-03-05T04:03:22.487Z,2.17
2019-03-05T04:05:53.401Z,1.83
2019-03-05T04:08:24.214Z,2.10
2019-03-05T04:10:54.962Z,1.80
2019-03-05T04:13:26.148Z,2.00
2019-03-05T04:15:57.128Z,2.50
2019-03-05T04:18:27.868Z,2.30
2019-03-05T04:20:59.084Z,2.60
2019-03-05T04:23:29.821Z,2.07
2019-03-05T04:26:00.888Z,2.40
2019-03-05T04:28:31.631Z,2.20
2019-03-05T04:31:02.768Z,1.93
2019-03-05T04:33:33.511Z,2.33
2019-03-05T04:36:04.350Z,1.93
2019-03-05T04:38:35.430Z,2.10
2019-03-05T04:41:06.180Z,2.30
2019-03-05T04:43:37.155Z,2.73
2019-03-05T04:46:25.540Z,2.17
2019-03-05T04:49:14.677Z,2.33
2019-03-05T04:51:50.115Z,2.60
2019-03-05T04:54:21.174Z,2.83
2019-03-05T04:56:51.933Z,2.30
2019-03-05T04:59:22.673Z,3.07
2019-03-05T05:01:53.430Z,2.50
2019-03-05T05:04:24.408Z,2.50
2019-03-05T05:06:55.497Z,2.60
2019-03-05T05:09:26.369Z,3.00
2019-03-05T05:11:57.344Z,2.53
2019-03-05T05:14:28.157Z,2.67
2019-03-05T05:16:59.145Z,2.47
2019-03-05T05:19:30.121Z,2.70
2019-03-05T05:22:00.892Z,2.63
2019-03-05T05:24:31.623Z,2.37
2019-03-05T05:27:02.638Z,2.73
2019-03-05T05:29:33.561Z,2.50
2019-03-05T05:32:04.397Z,2.47
2019-03-05T05:34:35.377Z,2.40
2019-03-05T05:37:06.170Z,2.80
2019-03-05T05:40:12.743Z,3.30
2019-03-05T05:42:43.493Z,2.90
2019-03-05T05:45:16.206Z,2.70
2019-03-05T05:47:47.302Z,3.30
2019-03-05T05:50:18.634Z,2.37
2019-03-05T05:52:49.725Z,2.40
2019-03-05T05:55:20.925Z,2.93
2019-03-05T05:57:51.681Z,3.10
2019-03-05T06:00:23.069Z,3.27
2019-03-05T06:02:53.893Z,2.93
2019-03-05T06:05:24.705Z,2.40
2019-03-05T06:07:55.791Z,2.50
2019-03-05T06:10:27.028Z,2.00
2019-03-05T06:12:57.890Z,1.80
2019-03-05T06:15:28.708Z,2.07
2019-03-05T06:17:59.792Z,2.67
2019-03-05T06:20:30.842Z,2.23
2019-03-05T06:23:01.667Z,2.43
2019-03-05T06:25:32.472Z,2.23
2019-03-05T06:28:03.298Z,2.27
2019-03-05T06:30:34.661Z,2.10
2019-03-05T06:33:05.484Z,2.50
2019-03-05T06:35:37.044Z,2.10
2019-03-05T06:38:08.118Z,2.33
2019-03-05T06:40:38.892Z,2.40
2019-03-05T06:43:09.937Z,2.30
2019-03-05T06:45:41.065Z,2.30
2019-03-05T06:48:11.857Z,2.80
2019-03-05T06:50:42.630Z,2.77
2019-03-05T06:53:13.632Z,3.40
2019-03-05T06:55:44.435Z,2.73
2019-03-05T06:58:15.193Z,3.00
2019-03-05T07:00:46.004Z,3.00
2019-03-05T07:03:17.044Z,2.90
2019-03-05T07:06:23.665Z,2.60
2019-03-05T07:09:06.013Z,2.80
2019-03-05T07:12:00.480Z,2.73
2019-03-05T07:14:56.684Z,2.73
2019-03-05T07:17:39.846Z,2.80
2019-03-05T07:21:16.343Z,2.60
2019-03-05T07:24:10.654Z,2.83
2019-03-05T07:26:41.471Z,2.70
2019-03-05T07:29:12.378Z,2.50
2019-03-05T07:31:43.181Z,2.40
2019-03-05T07:34:26.001Z,2.30
2019-03-05T07:36:57.439Z,2.30
2019-03-05T07:39:28.257Z,2.40
2019-03-05T07:41:59.348Z,2.27
2019-03-05T07:44:30.797Z,1.80
2019-03-05T07:47:01.942Z,2.40
2019-03-05T07:49:43.353Z,2.13
2019-03-05T07:52:05.484Z,2.10
2019-03-05T07:54:36.462Z,2.20
2019-03-05T07:57:07.574Z,2.10
2019-03-05T07:59:38.398Z,1.90
2019-03-05T08:02:09.472Z,2.00
2019-03-05T08:04:40.639Z,2.00
2019-03-05T08:07:11.558Z,2.00
2019-03-05T08:09:42.429Z,2.00
2019-03-05T08:12:53.627Z,2.10
2019-03-05T08:16:24.396Z,2.20
2019-03-05T08:18:55.506Z,2.30
2019-03-05T08:21:26.546Z,2.67
2019-03-05T08:23:57.372Z,2.43
2019-03-05T08:26:28.358Z,2.47
2019-03-05T08:28:59.407Z,2.20
2019-03-05T08:31:30.161Z,2.20
2019-03-05T08:34:01.883Z,2.77
2019-03-05T08:36:32.922Z,2.00
2019-03-05T08:39:06.019Z,2.20
2019-03-05T08:41:37.257Z,2.07
2019-03-05T08:44:08.112Z,2.33
2019-03-05T08:46:39.157Z,2.20
2019-03-05T08:49:10.321Z,2.00
2019-03-05T08:51:41.304Z,2.40
2019-03-05T08:54:12.308Z,2.00
2019-03-05T08:56:43.557Z,2.30
2019-03-05T08:59:14.857Z,2.33
2019-03-05T09:01:46.131Z,2.53
2019-03-05T09:04:17.154Z,2.27
2019-03-05T09:06:48.208Z,2.30
2019-03-05T09:09:19.575Z,2.30
2019-03-05T09:11:50.415Z,2.40
2019-03-05T09:14:21.530Z,2.23
2019-03-05T09:16:52.329Z,2.00
2019-03-05T09:19:23.543Z,2.30
2019-03-05T09:21:54.948Z,1.93
2019-03-05T09:24:25.779Z,2.40
2019-03-05T09:26:56.601Z,2.80
2019-03-05T09:29:28.024Z,2.50
2019-03-05T09:31:58.840Z,2.60
2019-03-05T09:34:29.846Z,2.13
2019-03-05T09:37:00.809Z,2.60
2019-03-05T09:39:31.721Z,2.50
2019-03-05T09:42:02.793Z,2.67
2019-03-05T09:44:34.043Z,2.30
2019-03-05T09:47:05.053Z,2.50
2019-03-05T09:49:35.873Z,2.40
2019-03-05T09:52:06.873Z,2.20
2019-03-05T09:54:37.694Z,2.60
2019-03-05T09:57:08.721Z,2.30
2019-03-05T09:59:39.778Z,2.20
2019-03-05T10:02:11.176Z,2.43
2019-03-05T10:04:45.084Z,3.00
2019-03-05T10:07:19.308Z,2.43
2019-03-05T10:09:49.799Z,2.20
2019-03-05T10:12:21.125Z,2.70
2019-03-05T10:14:51.889Z,2.40
2019-03-05T10:17:22.876Z,2.20
2019-03-05T10:19:54.063Z,2.33
2019-03-05T10:22:25.489Z,2.70
2019-03-05T10:25:05.673Z,2.63
2019-03-05T10:27:29.581Z,2.23
2019-03-05T10:30:00.616Z,2.50
2019-03-05T10:32:32.046Z,2.20
2019-03-05T10:35:03.215Z,2.70
2019-03-05T10:37:34.344Z,2.47
2019-03-05T10:40:05.581Z,2.80
2019-03-05T10:42:36.866Z,2.33
2019-03-05T10:45:09.272Z,2.50
2019-03-05T10:47:40.160Z,2.53
2019-03-05T10:50:15.599Z,2.53
2019-03-05T10:52:47.521Z,2.87
2019-03-05T10:55:26.210Z,2.50
2019-03-05T10:57:51.575Z,2.50
2019-03-05T11:00:27.135Z,2.63
2019-03-05T11:02:59.154Z,2.73
2019-03-05T11:05:32.356Z,2.23
2019-03-05T11:08:03.271Z,2.43
2019-03-05T11:10:34.311Z,2.70
2019-03-05T11:13:05.705Z,2.97
2019-03-05T11:15:37.887Z,2.87
2019-03-05T11:18:09.346Z,3.20
2019-03-05T11:20:40.442Z,3.30
2019-03-05T11:23:11.763Z,3.20
2019-03-05T11:25:43.139Z,2.50
2019-03-05T11:28:14.214Z,2.87
2019-03-05T11:30:45.375Z,2.90
2019-03-05T11:33:16.258Z,2.80
2019-03-05T11:35:47.129Z,2.80
2019-03-05T11:38:18.506Z,3.00
2019-03-05T11:40:49.339Z,3.00
2019-03-05T11:43:20.164Z,3.10
2019-03-05T11:45:51.175Z,3.30
2019-03-05T11:48:22.149Z,3.10
2019-03-05T11:50:53.045Z,3.40
2019-03-05T11:53:24.340Z,3.10
2019-03-05T11:55:55.335Z,3.37
2019-03-05T11:58:27.290Z,3.03
2019-03-05T12:01:13.865Z,3.30
2019-03-05T12:03:45.094Z,3.13
2019-03-05T12:06:16.381Z,2.67
2019-03-05T12:08:47.619Z,2.90
2019-03-05T12:11:18.517Z,2.80
2019-03-05T12:13:49.487Z,2.10
2019-03-05T12:16:20.786Z,2.37
2019-03-05T12:18:51.632Z,2.40
2019-03-05T12:21:22.632Z,2.60
2019-03-05T12:23:53.665Z,3.00
2019-03-05T12:26:24.645Z,2.30
2019-03-05T12:28:56.025Z,2.20
2019-03-05T12:31:28.284Z,2.00
2019-03-05T12:33:59.027Z,2.10
2019-03-05T12:36:30.007Z,2.03
2019-03-05T12:39:01.026Z,1.93
2019-03-05T12:41:33.996Z,1.70
2019-03-05T12:44:05.466Z,1.80
2019-03-05T12:46:36.866Z,1.80
2019-03-05T12:49:07.715Z,1.60
2019-03-05T12:51:38.704Z,2.10
2019-03-05T12:54:09.493Z,1.90
2019-03-05T12:56:40.557Z,2.27
2019-03-05T12:59:11.974Z,1.77
2019-03-05T13:01:43.011Z,1.80
2019-03-05T13:04:14.062Z,1.80
2019-03-05T13:06:45.122Z,1.70
2019-03-05T13:09:19.585Z,1.97
2019-03-05T13:11:50.972Z,2.37
2019-03-05T13:14:22.131Z,2.10
2019-03-05T13:16:53.204Z,2.40
2019-03-05T13:19:24.449Z,2.17
2019-03-05T13:21:55.491Z,2.50
2019-03-05T13:24:27.585Z,2.40
2019-03-05T13:26:58.577Z,1.93
2019-03-05T13:29:29.571Z,2.10
2019-03-05T13:32:00.536Z,2.00
2019-03-05T13:34:31.618Z,2.13
2019-03-05T13:37:02.356Z,2.10
2019-03-05T13:39:33.455Z,2.00
2019-03-05T13:42:04.484Z,2.30
2019-03-05T13:44:36.164Z,2.20
2019-03-05T13:47:08.696Z,1.90
2019-03-05T13:50:21.053Z,1.97
2019-03-05T13:53:23.963Z,1.80
2019-03-05T13:56:21.619Z,1.90
2019-03-05T13:59:31.255Z,1.50
2019-03-05T14:02:02.335Z,2.20
2019-03-05T14:04:44.300Z,2.00
2019-03-05T14:07:38.138Z,1.93
2019-03-05T14:10:09.020Z,1.80
2019-03-05T14:12:40.196Z,1.90
2019-03-05T14:15:11.405Z,1.80
2019-03-05T14:17:44.255Z,1.80
2019-03-05T14:20:16.145Z,1.87
2019-03-05T14:22:47.530Z,2.30
2019-03-05T14:25:18.786Z,2.00
2019-03-05T14:27:50.280Z,1.80
2019-03-05T14:30:21.900Z,1.70
2019-03-05T14:32:53.439Z,2.00
2019-03-05T14:35:27.601Z,2.13
2019-03-05T14:37:58.727Z,2.23
2019-03-05T14:40:30.947Z,2.20
2019-03-05T14:43:03.285Z,1.90
2019-03-05T14:45:36.236Z,2.03
2019-03-05T14:48:07.915Z,2.00
2019-03-05T14:50:38.975Z,1.70
2019-03-05T14:53:11.906Z,1.87
2019-03-05T14:55:43.143Z,2.13
2019-03-05T14:58:14.039Z,1.80
2019-03-05T15:00:45.143Z,1.97
2019-03-05T15:03:16.059Z,1.77
2019-03-05T15:05:46.831Z,1.90
2019-03-05T15:08:18.305Z,1.70
2019-03-05T15:10:49.629Z,2.00
2019-03-05T15:13:20.602Z,1.83
2019-03-05T15:15:51.371Z,1.57
2019-03-05T15:18:22.450Z,1.67
2019-03-05T15:20:53.512Z,1.97
2019-03-05T15:23:25.089Z,1.77
2019-03-05T15:25:56.426Z,1.70
2019-03-05T15:28:27.464Z,1.80
2019-03-05T15:30:58.488Z,1.97
2019-03-05T15:33:29.541Z,2.00
2019-03-05T15:36:00.690Z,2.37
2019-03-05T15:38:31.733Z,2.10
2019-03-05T15:41:02.850Z,2.03
2019-03-05T15:43:33.979Z,1.87
2019-03-05T15:46:05.668Z,1.90
2019-03-05T15:48:36.785Z,1.70
2019-03-05T15:51:07.636Z,1.90
2019-03-05T15:53:39.112Z,2.20
2019-03-05T15:56:10.140Z,1.87
2019-03-05T15:58:41.867Z,1.80
2019-03-05T16:01:21.876Z,1.90
2019-03-05T16:03:45.756Z,5.20
2019-03-05T16:06:16.961Z,2.40
2019-03-05T16:08:48.544Z,1.97
2019-03-05T16:11:19.586Z,1.80
2019-03-05T16:13:52.202Z,1.77
2019-03-05T16:16:24.230Z,2.80
2019-03-05T16:18:55.240Z,2.23
2019-03-05T16:21:26.311Z,2.10
2019-03-05T16:24:01.629Z,2.10
2019-03-05T16:26:31.292Z,5.27
2019-03-05T16:29:02.028Z,7.83
2019-03-05T16:31:52.273Z,3.27
2019-03-05T16:34:51.284Z,3.57
2019-03-05T16:37:42.629Z,2.40
2019-03-05T16:40:31.380Z,2.40
2019-03-05T16:43:12.656Z,2.30
2019-03-05T16:46:17.903Z,3.10
2019-03-05T16:48:56.177Z,2.30
2019-03-05T16:51:32.393Z,2.30
2019-03-05T16:54:27.302Z,2.50
2019-03-05T16:57:12.613Z,2.37
2019-03-05T16:59:53.192Z,2.40
2019-03-05T17:02:49.721Z,2.30
2019-03-05T17:05:44.529Z,2.80
2019-03-05T17:08:43.469Z,3.00
2019-03-05T17:11:36.592Z,3.30
2019-03-05T17:14:08.022Z,2.97
2019-03-05T17:16:38.890Z,3.67
2019-03-05T17:19:09.660Z,3.40
2019-03-05T17:21:40.902Z,3.87
2019-03-05T17:24:12.283Z,3.50
2019-03-05T17:26:43.139Z,3.90
2019-03-05T17:29:14.651Z,3.53
2019-03-05T17:31:45.926Z,3.87
2019-03-05T17:34:17.349Z,3.30
2019-03-05T17:36:48.794Z,3.20
2019-03-05T17:39:21.238Z,3.50
2019-03-05T17:41:52.447Z,3.50
2019-03-05T17:44:23.407Z,2.87
2019-03-05T17:46:55.005Z,12.07
2019-03-05T17:49:26.425Z,17.53
2019-03-05T17:51:57.411Z,5.00
2019-03-05T17:54:28.528Z,3.20
2019-03-05T17:56:59.392Z,4.33
2019-03-05T17:59:30.848Z,3.20
2019-03-05T18:02:01.668Z,3.20
2019-03-05T18:04:33.024Z,3.37
2019-03-05T18:07:04.123Z,4.10
2019-03-05T18:09:35.058Z,3.57
2019-03-05T18:12:06.104Z,3.20
2019-03-05T18:14:37.209Z,2.80
2019-03-05T18:17:08.196Z,2.60
2019-03-05T18:19:39.130Z,3.30
2019-03-05T18:22:09.936Z,3.67
2019-03-05T18:24:40.853Z,3.77
2019-03-05T18:27:12.409Z,3.80
2019-03-05T18:29:43.713Z,4.50
2019-03-05T18:32:15.405Z,4.93
2019-03-05T18:34:46.246Z,5.97
2019-03-05T18:37:17.463Z,5.23
2019-03-05T18:39:48.746Z,5.73
2019-03-05T18:42:19.890Z,4.57
2019-03-05T18:44:51.025Z,4.37
2019-03-05T18:47:22.442Z,4.37
2019-03-05T18:49:53.676Z,4.57
2019-03-05T18:52:24.777Z,4.67
2019-03-05T18:54:55.881Z,4.70
2019-03-05T18:57:28.954Z,4.37
2019-03-05T19:00:01.997Z,5.00
2019-03-05T19:02:34.417Z,4.20
2019-03-05T19:05:05.946Z,16.57
2019-03-05T19:07:37.166Z,5.87
2019-03-05T19:10:11.206Z,4.90
2019-03-05T19:12:42.634Z,4.43
2019-03-05T19:15:15.876Z,4.53
2019-03-05T19:17:47.064Z,4.00
2019-03-05T19:20:19.876Z,4.40
2019-03-05T19:22:51.093Z,4.20
2019-03-05T19:25:23.827Z,4.00
2019-03-05T19:27:54.568Z,5.20
2019-03-05T19:30:30.898Z,4.10
2019-03-05T19:33:02.150Z,3.70
2019-03-05T19:35:33.073Z,3.87
2019-03-05T19:38:04.225Z,4.03
2019-03-05T19:40:36.204Z,4.77
2019-03-05T19:43:07.280Z,4.60
2019-03-05T19:45:38.593Z,4.03
2019-03-05T19:48:09.412Z,3.97
2019-03-05T19:50:40.305Z,4.70
2019-03-05T19:53:12.096Z,3.60
2019-03-05T19:55:43.083Z,3.63
2019-03-05T19:58:14.601Z,3.30
2019-03-05T20:00:53.561Z,3.47
2019-03-05T20:03:24.408Z,3.77
2019-03-05T20:05:55.335Z,3.83
2019-03-05T20:08:26.840Z,3.97
2019-03-05T20:10:58.115Z,3.60
2019-03-05T20:13:30.686Z,3.90
2019-03-05T20:16:01.751Z,3.87
2019-03-05T20:18:32.569Z,3.63
2019-03-05T20:21:03.321Z,3.20
2019-03-05T20:23:35.072Z,3.60
2019-03-05T20:26:07.652Z,3.73
2019-03-05T20:28:38.466Z,4.10
2019-03-05T20:31:09.544Z,4.00
2019-03-05T20:33:41.067Z,3.80
2019-03-05T20:36:12.364Z,3.93
2019-03-05T20:38:45.100Z,4.27
2019-03-05T20:41:15.956Z,4.20
2019-03-05T20:43:46.929Z,3.73
2019-03-05T20:46:24.087Z,3.93
2019-03-05T20:48:55.324Z,3.27
2019-03-05T20:51:26.547Z,3.90
2019-03-05T20:53:58.378Z,3.60
2019-03-05T20:56:30.357Z,5.20
2019-03-05T20:59:01.165Z,4.50
2019-03-05T21:01:32.831Z,4.30
2019-03-05T21:04:04.001Z,3.63
2019-03-05T21:06:36.102Z,4.30
2019-03-05T21:09:18.112Z,3.43
2019-03-05T21:11:49.324Z,3.17
2019-03-05T21:14:20.886Z,3.30
2019-03-05T21:16:52.345Z,3.10
2019-03-05T21:19:23.252Z,3.00
2019-03-05T21:21:54.167Z,2.70
2019-03-05T21:24:26.673Z,2.80
2019-03-05T21:26:57.730Z,3.07
2019-03-05T21:29:28.532Z,2.93
2019-03-05T21:31:59.915Z,2.70
2019-03-05T21:34:30.671Z,3.10
2019-03-05T21:37:01.722Z,2.60
2019-03-05T21:39:32.683Z,2.80
2019-03-05T21:42:03.721Z,2.60
2019-03-05T21:44:34.537Z,3.00
2019-03-05T21:47:05.688Z,2.67
2019-03-05T21:49:36.743Z,2.77
2019-03-05T21:52:08.094Z,2.53
2019-03-05T21:54:39.464Z,2.67
2019-03-05T21:57:10.517Z,2.90
2019-03-05T21:59:41.786Z,2.60
2019-03-05T22:02:12.696Z,2.63
2019-03-05T22:04:43.764Z,2.67
2019-03-05T22:07:14.799Z,2.77
2019-03-05T22:09:45.579Z,2.87
2019-03-05T22:12:16.784Z,3.40
2019-03-05T22:14:47.993Z,3.70
2019-03-05T22:17:18.904Z,4.00
2019-03-05T22:19:49.822Z,3.63
2019-03-05T22:22:20.647Z,3.80
2019-03-05T22:24:51.468Z,3.70
2019-03-05T22:27:23.275Z,3.70
2019-03-05T22:29:54.249Z,4.00
2019-03-05T22:32:25.079Z,4.00
2019-03-05T22:34:55.826Z,3.67
2019-03-05T22:37:26.642Z,3.80
2019-03-05T22:39:58.129Z,3.43
2019-03-05T22:42:29.753Z,3.77
2019-03-05T22:45:00.707Z,3.40
2019-03-05T22:47:32.342Z,3.73
2019-03-05T22:50:03.581Z,3.60
2019-03-05T22:52:34.699Z,3.27
2019-03-05T22:55:05.749Z,3.70
2019-03-05T22:57:36.721Z,3.10
2019-03-05T23:00:11.500Z,3.10
2019-03-05T23:02:44.101Z,3.40
2019-03-05T23:05:15.996Z,3.90
2019-03-05T23:07:46.905Z,3.63
2019-03-05T23:10:18.589Z,3.80
2019-03-05T23:12:49.591Z,3.13
2019-03-05T23:15:20.712Z,3.53
2019-03-05T23:17:52.122Z,3.10
2019-03-05T23:20:22.924Z,3.17
2019-03-05T23:22:54.144Z,3.40
2019-03-05T23:25:24.951Z,3.40
2019-03-05T23:27:55.845Z,3.10
2019-03-05T23:30:26.721Z,3.00
2019-03-05T23:32:57.675Z,2.87
2019-03-05T23:35:28.970Z,2.97
2019-03-05T23:38:00.258Z,3.10
2019-03-05T23:40:32.285Z,2.70
2019-03-05T23:43:03.328Z,3.37
2019-03-05T23:45:34.605Z,7.73
2019-03-05T23:48:05.439Z,7.30
2019-03-05T23:50:36.328Z,5.77
2019-03-05T23:53:07.385Z,9.10
2019-03-05T23:55:38.430Z,7.10
2019-03-05T23:58:09.874Z,3.30
